Time;durP1;ratioP1;P1;durP2;ratioP2;P2;SDS_P1;SDS_P2;PMS_P1;PMS_P2;Temp;Humidity;BMP_temperature;BMP_pressure;BME280_temperature;BME280_humidity;BME280_pressure;Samples;Min_cycle;Max_cycle;Signal;HPM_P1;HPM_P2
2022/11/03 00:01:42;;;;;;;;;;;21.20;99.90;;;;;;4145851;28;19929;-67
2022/11/03 00:03:48;;;;;;;;;;;21.20;99.90;;;;;;4130190;28;19926;-68
2022/11/03 00:08:10;;;;;;;;;;;21.40;99.90;;;;;;4160154;28;19976;-67
2022/11/03 00:10:20;;;;;;;;;;;21.50;99.90;;;;;;4145983;28;19964;-68
2022/11/03 00:12:25;;;;;;;;;;;21.40;99.90;;;;;;4146396;28;19976;-67
2022/11/03 00:14:28;;;;;;;;;;;21.50;99.90;;;;;;4145784;28;19933;-67
2022/11/03 00:16:34;;;;;;;;;;;21.50;99.90;;;;;;4162476;28;19933;-67
2022/11/03 00:18:38;;;;;;;;;;;21.50;99.90;;;;;;4146186;28;19929;-67
2022/11/03 00:20:42;;;;;;;;;;;21.60;99.90;;;;;;4145145;28;19929;-70
2022/11/03 00:22:46;;;;;;;;;;;21.80;99.90;;;;;;4151267;28;19945;-68
2022/11/03 00:24:50;;;;;;;;;;;21.80;99.90;;;;;;4181156;28;20279;-68
2022/11/03 00:26:54;;;;;;;;;;;22.00;99.90;;;;;;4179020;28;19929;-68
2022/11/03 00:29:01;;;;;;;;;;;22.00;99.90;;;;;;4202405;28;20571;-69
2022/11/03 00:31:08;;;;;;;;;;;22.10;99.90;;;;;;4161993;28;20016;-69
2022/11/03 00:33:11;;;;;;;;;;;22.30;99.90;;;;;;4163643;28;19933;-69
2022/11/03 00:35:17;;;;;;;;;;;22.40;99.90;;;;;;4163223;28;19960;-69
2022/11/03 00:37:21;;;;;;;;;;;22.50;99.90;;;;;;4163402;28;20027;-69
2022/11/03 00:39:25;;;;;;;;;;;22.50;99.90;;;;;;4178900;28;20011;-70
2022/11/03 00:41:28;;;;;;;;;;;22.50;99.90;;;;;;4163254;28;19940;-69
2022/11/03 00:43:33;;;;;;;;;;;22.70;99.90;;;;;;4163455;28;19933;-69
2022/11/03 00:45:37;;;;;;;;;;;22.80;99.90;;;;;;4162993;28;19935;-69
2022/11/03 00:49:58;;;;;;;;;;;22.80;99.90;;;;;;4162921;28;19929;-69
2022/11/03 00:52:05;;;;;;;;;;;22.90;99.90;;;;;;4162956;28;19929;-69
2022/11/03 00:54:09;;;;;;;;;;;23.00;99.90;;;;;;4176407;28;19925;-70
2022/11/03 00:56:14;;;;;;;;;;;23.10;99.90;;;;;;4161851;28;20422;-70
2022/11/03 00:58:17;;;;;;;;;;;23.10;99.90;;;;;;4163009;28;19936;-69
2022/11/03 01:00:23;;;;;;;;;;;23.10;99.90;;;;;;4177584;28;20748;-69
2022/11/03 01:02:27;;;;;;;;;;;23.20;99.90;;;;;;4162722;28;20439;-69
2022/11/03 01:06:52;;;;;;;;;;;23.30;99.90;;;;;;4161692;28;19929;-70
2022/11/03 01:08:57;;;;;;;;;;;23.40;99.90;;;;;;4160937;28;20320;-69
2022/11/03 01:13:24;;;;;;;;;;;23.40;99.90;;;;;;4160477;28;19936;-69
2022/11/03 01:15:27;;;;;;;;;;;23.40;99.90;;;;;;4162661;28;19932;-69
2022/11/03 01:17:31;;;;;;;;;;;23.30;99.90;;;;;;4161635;28;20012;-69
2022/11/03 01:19:37;;;;;;;;;;;23.30;99.90;;;;;;4160826;28;19933;-69
2022/11/03 01:21:42;;;;;;;;;;;23.30;99.90;;;;;;4160006;28;19983;-69
2022/11/03 01:23:46;;;;;;;;;;;23.30;99.90;;;;;;4161993;28;20461;-69
2022/11/03 01:25:51;;;;;;;;;;;23.30;99.90;;;;;;4162087;28;19931;-69
2022/11/03 01:27:55;;;;;;;;;;;23.30;99.90;;;;;;4162461;28;20461;-69
2022/11/03 01:29:59;;;;;;;;;;;23.30;99.90;;;;;;4162018;28;19979;-69
2022/11/03 01:32:05;;;;;;;;;;;23.30;99.90;;;;;;4159498;28;19929;-69
2022/11/03 01:34:14;;;;;;;;;;;23.30;99.90;;;;;;4162053;28;19937;-69
2022/11/03 01:36:18;;;;;;;;;;;23.40;99.90;;;;;;4161475;28;19963;-69
2022/11/03 01:38:25;;;;;;;;;;;23.40;99.90;;;;;;4166634;28;19978;-69
2022/11/03 01:40:29;;;;;;;;;;;23.60;99.90;;;;;;4162684;28;19925;-69
2022/11/03 01:42:34;;;;;;;;;;;23.60;99.90;;;;;;4170309;28;19925;-69
2022/11/03 01:44:41;;;;;;;;;;;23.70;99.90;;;;;;4163135;28;20016;-69
2022/11/03 01:46:45;;;;;;;;;;;23.70;99.90;;;;;;4160200;28;19929;-69
2022/11/03 01:49:04;;;;;;;;;;;23.80;99.90;;;;;;4162653;28;19925;-69
2022/11/03 01:51:08;;;;;;;;;;;23.80;99.90;;;;;;4162913;28;19929;-69
2022/11/03 01:53:14;;;;;;;;;;;23.90;99.90;;;;;;4168404;28;19944;-69
2022/11/03 01:55:26;;;;;;;;;;;23.90;99.90;;;;;;4177924;28;19931;-69
2022/11/03 01:57:37;;;;;;;;;;;24.00;99.90;;;;;;4194461;28;19960;-69
2022/11/03 01:59:41;;;;;;;;;;;24.10;99.90;;;;;;4178315;28;20442;-69
2022/11/03 02:01:44;;;;;;;;;;;24.10;99.90;;;;;;4159807;28;20617;-69
2022/11/03 02:03:52;;;;;;;;;;;24.20;99.50;;;;;;4193351;28;19951;-69
2022/11/03 02:05:56;;;;;;;;;;;24.20;98.70;;;;;;4193809;28;19951;-69
2022/11/03 02:08:03;;;;;;;;;;;24.30;98.60;;;;;;4162951;28;19928;-69
2022/11/03 02:10:09;;;;;;;;;;;24.40;98.20;;;;;;4162010;28;19976;-69
2022/11/03 02:12:13;;;;;;;;;;;24.50;98.40;;;;;;4162073;28;19925;-69
2022/11/03 02:14:17;;;;;;;;;;;24.60;97.10;;;;;;4162537;28;20016;-69
2022/11/03 02:16:21;;;;;;;;;;;24.50;97.00;;;;;;4162076;28;20383;-69
2022/11/03 02:18:31;;;;;;;;;;;24.50;97.40;;;;;;4177207;28;19936;-69
2022/11/03 02:20:35;;;;;;;;;;;24.60;96.80;;;;;;4161236;28;19929;-69
2022/11/03 02:22:51;;;;;;;;;;;24.70;96.70;;;;;;4162051;28;19936;-69
2022/11/03 02:25:08;;;;;;;;;;;24.80;96.80;;;;;;4177652;28;19925;-68
2022/11/03 02:27:14;;;;;;;;;;;24.80;96.30;;;;;;4162054;28;20368;-68
2022/11/03 02:29:18;;;;;;;;;;;24.80;96.50;;;;;;4178769;28;19928;-69
2022/11/03 02:31:26;;;;;;;;;;;24.90;96.90;;;;;;4164375;28;19935;-69
2022/11/03 02:33:42;;;;;;;;;;;25.00;96.60;;;;;;4160136;28;19925;-69
2022/11/03 02:35:57;;;;;;;;;;;24.90;96.00;;;;;;4167955;28;20023;-69
2022/11/03 02:38:01;;;;;;;;;;;25.00;95.60;;;;;;4160274;28;19933;-69
2022/11/03 02:40:13;;;;;;;;;;;25.10;95.80;;;;;;4171785;28;19932;-69
2022/11/03 02:42:24;;;;;;;;;;;25.00;95.50;;;;;;4165693;28;19936;-69
2022/11/03 02:44:31;;;;;;;;;;;25.10;95.70;;;;;;4171281;28;19925;-69
2022/11/03 02:46:39;;;;;;;;;;;25.20;95.00;;;;;;4169226;28;19967;-69
2022/11/03 02:48:45;;;;;;;;;;;25.30;94.20;;;;;;4169102;28;19937;-69
2022/11/03 02:50:49;;;;;;;;;;;25.30;93.60;;;;;;4093231;28;56295;-68
2022/11/03 02:53:01;;;;;;;;;;;25.30;93.80;;;;;;3969622;28;9999908;-68
2022/11/03 02:55:21;;;;;;;;;;;25.40;93.80;;;;;;3622844;28;10001240;-67
